• Join FlightAware (Why Join?)
  • Login
  • US Flag 
07:05AM EDT


 

Airport Tracker/Info


-or-


 

Live Flight TrackerFlight Track Log ✈ EJA102 ✈ 31-Dec-2013 ✈ KLUK - KLUK

Flight Track Log - Related Links

Times and Time Zones

All times are in EST time to prevent confusion due to time zone crossing. See the EJA102 flight status page for this flight to view local times or setup timezone preferences in your user account.

Time Position Orientation Groundspeed Altitude Reporting Facility
EST Latitude Longitude Course Direction KTS MPH feet Rate Location/Type
11:54AM 39.0833 -84.4167 201° Southwest 185 213 1,300  Level Cincinnati TRACON
11:55AM 39.0500 -84.4333 201° Southwest 215 247 2,500 1,980 Climbing Cincinnati TRACON
11:56AM 39.0000 -84.4667 207° Southwest 208 239 4,700 2,760 Climbing Cincinnati TRACON
11:57AM 38.9333 -84.4833 191° South 251 289 7,800 2,760 Climbing Cincinnati TRACON
11:58AM 38.8667 -84.5000 191° South 295 339 10,000 1,080 Climbing Cincinnati TRACON
11:59AM 38.7833 -84.5167 189° South 295 339 10,000  Level Cincinnati TRACON
12:00PM 38.7000 -84.5333 189° South 283 326 10,000  Level Cincinnati TRACON
12:01PM 38.6333 -84.5833 210° Southwest 279 321 10,000  Level Cincinnati TRACON
12:02PM 38.6833 -84.6333 322° Northwest 269 310 10,000  Level Cincinnati TRACON
12:03PM 38.7500 -84.5833 30° Northeast 287 330 10,000  Level Cincinnati TRACON
12:04PM 38.8167 -84.5167 38° Northeast 307 353 10,000  Level Cincinnati TRACON
12:05PM 38.8833 -84.4833 21° North 289 333 10,000 1,260 Level Cincinnati TRACON
12:06PM 38.9500 -84.4167 38° Northeast 310 357 12,500 1,380 Climbing Cincinnati TRACON
12:07PM 39.0333 -84.3500 32° Northeast 317 365 13,000 180 Climbing Cincinnati TRACON
12:08PM 39.1000 -84.2833 38° Northeast 324 373 13,000  Level Cincinnati TRACON
12:09PM 39.1833 -84.2000 38° Northeast 312 359 13,000  Level Cincinnati TRACON
12:10PM 39.2500 -84.1500 30° Northeast 327 376 13,000 -300 Level Cincinnati TRACON
12:11PM 39.3500 -84.1167 14° North 307 353 12,400 -1,500 Descending Cincinnati TRACON
12:12PM 39.3333 -84.2000 256° West 304 350 10,000 -2,160 Descending Cincinnati TRACON
12:13PM 39.2833 -84.2333 207° Southwest 265 305 8,500 -1,980 Descending Cincinnati TRACON
12:14PM 39.2167 -84.2500 191° South 238 274 6,500 -1,980 Descending Cincinnati TRACON
12:15PM 39.1500 -84.2667 191° South 191 220 4,400 -1,560 Descending Cincinnati TRACON
12:16PM 39.1167 -84.2833 201° Southwest 133 153 3,300 -960 Descending Cincinnati TRACON
12:17PM 39.1000 -84.3000 218° Southwest 138 159 2,500 -600 Descending Cincinnati TRACON
12:18PM 39.1333 -84.3333 322° Northwest 124 143 2,100 -600 Descending Cincinnati TRACON
12:19PM 39.1333 -84.3667 270° West 125 144 1,400 -720 Descending Cincinnati TRACON